N.dadayli — TCCW7 — position and weather

sailwx.info

Track history (hours):
 
Tides and Currents Weather Stations Pressure Air Temp Water Temp Dewpoint Dewpoint Depression Visibility Wind Speed Wind Dir Waves Ship Positions

N.dadayli

Last reported at 2017-Mar-17 17:33 UTC. Time now 2017-Mar-28 02:31 UTC.
Position N 37°40' E 023°42'.
Warning: this ship's position is 10 days out of date.

Length 101 m; draft 5.2 m.

Type: Cargo ship. MMSI: 271000768.

Date/timePositionNaut miles runAvg speedWind from/ knotsBaromVisibWave heightAir tempDewpointWater temp
2017-Mar-17 17:33N 37°40' E 023°42'1211.6
2017-Mar-17 16:33N 37°50' E 023°35'1211.9
2017-Mar-17 15:33N 37°51' E 023°20'357 7.0
2017-Mar-15 12:30N 37°54' E 015°47'1111.3
2017-Mar-15 11:33N 37°60' E 015°36'1211.6
2017-Mar-15 10:33N 38°12' E 015°35'8 8.3
2017-Mar-15 09:33N 38°20' E 015°35'1211.6
2017-Mar-15 08:33N 38°26' E 015°23'1211.8
2017-Mar-15 07:33N 38°32' E 015°10'1211.8
2017-Mar-15 06:31N 38°39' E 014°57'52110.6
2017-Mar-13 05:17N 43°08' E 005°07'7 9.7
2017-Mar-13 04:31N 43°14' E 005°00'1010.1
2017-Mar-13 03:33N 43°23' E 004°56'2 0.1
2017-Mar-12 00:32N 43°24' E 004°54'1 1.4
2017-Mar-11 23:32N 43°25' E 004°56'0 0.0
2017-Mar-11 22:33N 43°25' E 004°56'0 0.0
2017-Mar-11 21:33N 43°25' E 004°56'0 0.0
2017-Mar-11 20:33N 43°25' E 004°56'0 0.0
2017-Mar-11 19:27N 43°25' E 004°56'0 0.0
2017-Mar-11 18:33N 43°25' E 004°56'0 0.0
2017-Mar-11 17:30N 43°25' E 004°56'0 0.0
2017-Mar-11 16:33N 43°25' E 004°56'0 0.0
2017-Mar-11 15:33N 43°25' E 004°56'0 0.0
2017-Mar-11 14:33N 43°25' E 004°56'0 0.0
2017-Mar-11 13:33N 43°25' E 004°56'0 0.0
2017-Mar-11 12:27N 43°25' E 004°56'0 0.1
2017-Mar-11 11:27N 43°25' E 004°56'0 0.0
2017-Mar-11 10:21N 43°25' E 004°56'0 0.0
2017-Mar-10 05:27N 43°25' E 004°56'0 0.0
2017-Mar-10 01:30N 43°25' E 004°56'0 0.0
2017-Mar-10 00:24N 43°25' E 004°56'0 0.0
2017-Mar-09 23:32N 43°25' E 004°56'0 0.0
2017-Mar-09 17:30N 43°25' E 004°56'0 0.0
2017-Mar-09 16:24N 43°25' E 004°56'0 0.0
2017-Mar-09 15:33N 43°25' E 004°56'0 0.0
2017-Mar-09 13:30N 43°25' E 004°56'0 0.0
2017-Mar-09 07:29N 43°25' E 004°56'0 0.0
2017-Mar-09 06:33N 43°25' E 004°56'0 0.0
2017-Mar-09 05:33N 43°25' E 004°56'5 5.1
2017-Mar-09 04:33N 43°20' E 004°59'10 9.5
2017-Mar-09 03:32N 43°11' E 005°05'86 9.6
2017-Mar-08 18:33N 43°17' E 007°02'1211.8
2017-Mar-08 17:33N 43°24' E 007°15'1211.9
2017-Mar-08 16:34N 43°31' E 007°28'1211.8
2017-Mar-08 15:34N 43°39' E 007°41'1111.3
2017-Mar-08 14:33N 43°45' E 007°54'2511.6
2017-Mar-08 12:25N 43°60' E 008°21'1112.5
2017-Mar-08 11:33N 44°06' E 008°34'1211.8
2017-Mar-08 10:34N 44°13' E 008°47'1110.7
2017-Mar-08 09:33N 44°20' E 008°58'3 2.4
2017-Mar-08 08:31N 44°22' E 008°60'0 0.0
2017-Mar-08 07:31N 44°22' E 008°60'0 0.0
2017-Mar-08 06:31N 44°22' E 008°60'0 0.0
2017-Mar-08 05:28N 44°22' E 008°60'0 0.0
2017-Mar-08 04:31N 44°22' E 008°60'0 0.0
2017-Mar-08 03:31N 44°22' E 008°60'0 0.0
2017-Mar-08 02:31N 44°22' E 009°00'0 0.0
2017-Mar-08 01:31N 44°22' E 009°00'0 0.0
2017-Mar-08 00:31N 44°22' E 008°60'0 0.0
2017-Mar-07 23:31N 44°22' E 008°60'0 0.0
2017-Mar-07 22:31N 44°22' E 008°60'0 0.0
2017-Mar-07 21:31N 44°22' E 008°60'0 0.1
2017-Mar-07 20:31N 44°22' E 008°60'0 0.0
2017-Mar-07 19:31N 44°22' E 008°60'0 0.0
2017-Mar-07 18:31N 44°22' E 008°60'  
Track history (hours):
 
Tides and Currents Weather Stations Pressure Air Temp Water Temp Dewpoint Dewpoint Depression Visibility Wind Speed Wind Dir Waves Ship Positions

N.dadayli

Last reported at 2017-Mar-17 17:33 UTC. Time now 2017-Mar-28 02:31 UTC.
Position N 37°40' E 023°42'.
Warning: this ship's position is 10 days out of date.

Length 101 m; draft 5.2 m.

Type: Cargo ship. MMSI: 271000768.

Date/timePositionNaut miles runAvg speedWind from/ knotsBaromVisibWave heightAir tempDewpointWater temp
2017-Mar-17 17:33N 37°40' E 023°42'1211.6
2017-Mar-17 16:33N 37°50' E 023°35'1211.9
2017-Mar-17 15:33N 37°51' E 023°20'357 7.0
2017-Mar-15 12:30N 37°54' E 015°47'1111.3
2017-Mar-15 11:33N 37°60' E 015°36'1211.6
2017-Mar-15 10:33N 38°12' E 015°35'8 8.3
2017-Mar-15 09:33N 38°20' E 015°35'1211.6
2017-Mar-15 08:33N 38°26' E 015°23'1211.8
2017-Mar-15 07:33N 38°32' E 015°10'1211.8
2017-Mar-15 06:31N 38°39' E 014°57'52110.6
2017-Mar-13 05:17N 43°08' E 005°07'7 9.7
2017-Mar-13 04:31N 43°14' E 005°00'1010.1
2017-Mar-13 03:33N 43°23' E 004°56'2 0.1
2017-Mar-12 00:32N 43°24' E 004°54'1 1.4
2017-Mar-11 23:32N 43°25' E 004°56'0 0.0
2017-Mar-11 22:33N 43°25' E 004°56'0 0.0
2017-Mar-11 21:33N 43°25' E 004°56'0 0.0
2017-Mar-11 20:33N 43°25' E 004°56'0 0.0
2017-Mar-11 19:27N 43°25' E 004°56'0 0.0
2017-Mar-11 18:33N 43°25' E 004°56'0 0.0
2017-Mar-11 17:30N 43°25' E 004°56'0 0.0
2017-Mar-11 16:33N 43°25' E 004°56'0 0.0
2017-Mar-11 15:33N 43°25' E 004°56'0 0.0
2017-Mar-11 14:33N 43°25' E 004°56'0 0.0
2017-Mar-11 13:33N 43°25' E 004°56'0 0.0
2017-Mar-11 12:27N 43°25' E 004°56'0 0.1
2017-Mar-11 11:27N 43°25' E 004°56'0 0.0
2017-Mar-11 10:21N 43°25' E 004°56'0 0.0
2017-Mar-10 05:27N 43°25' E 004°56'0 0.0
2017-Mar-10 01:30N 43°25' E 004°56'0 0.0
2017-Mar-10 00:24N 43°25' E 004°56'0 0.0
2017-Mar-09 23:32N 43°25' E 004°56'0 0.0
2017-Mar-09 17:30N 43°25' E 004°56'0 0.0
2017-Mar-09 16:24N 43°25' E 004°56'0 0.0
2017-Mar-09 15:33N 43°25' E 004°56'0 0.0
2017-Mar-09 13:30N 43°25' E 004°56'0 0.0
2017-Mar-09 07:29N 43°25' E 004°56'0 0.0
2017-Mar-09 06:33N 43°25' E 004°56'0 0.0
2017-Mar-09 05:33N 43°25' E 004°56'5 5.1
2017-Mar-09 04:33N 43°20' E 004°59'10 9.5
2017-Mar-09 03:32N 43°11' E 005°05'86 9.6
2017-Mar-08 18:33N 43°17' E 007°02'1211.8
2017-Mar-08 17:33N 43°24' E 007°15'1211.9
2017-Mar-08 16:34N 43°31' E 007°28'1211.8
2017-Mar-08 15:34N 43°39' E 007°41'1111.3
2017-Mar-08 14:33N 43°45' E 007°54'2511.6
2017-Mar-08 12:25N 43°60' E 008°21'1112.5
2017-Mar-08 11:33N 44°06' E 008°34'1211.8
2017-Mar-08 10:34N 44°13' E 008°47'1110.7
2017-Mar-08 09:33N 44°20' E 008°58'3 2.4
2017-Mar-08 08:31N 44°22' E 008°60'0 0.0
2017-Mar-08 07:31N 44°22' E 008°60'0 0.0
2017-Mar-08 06:31N 44°22' E 008°60'0 0.0
2017-Mar-08 05:28N 44°22' E 008°60'0 0.0
2017-Mar-08 04:31N 44°22' E 008°60'0 0.0
2017-Mar-08 03:31N 44°22' E 008°60'0 0.0
2017-Mar-08 02:31N 44°22' E 009°00'0 0.0
2017-Mar-08 01:31N 44°22' E 009°00'0 0.0
2017-Mar-08 00:31N 44°22' E 008°60'0 0.0
2017-Mar-07 23:31N 44°22' E 008°60'0 0.0
2017-Mar-07 22:31N 44°22' E 008°60'0 0.0
2017-Mar-07 21:31N 44°22' E 008°60'0 0.1
2017-Mar-07 20:31N 44°22' E 008°60'0 0.0
2017-Mar-07 19:31N 44°22' E 008°60'0 0.0
2017-Mar-07 18:31N 44°22' E 008°60'  

Dump ship's entire track history